LiveATC.Net - Listen to live air traffic control over the Internet!


ICAO: FA40  IATA: FA40   Airport: Hidden Lake Airport
City: New Port Richey   State/Province: Florida
Country: United States   Continent: North America
KBKV METAR Weather: KBKV 220253Z AUTO 05004KT 10SM CLR 07/03 A3040 RMK AO2 SLP293 T00670033 51018
FA40 Flight Activity (FlightAware)

FA40 CTAF
Feed Status: UP   Listeners: 0
Listen in your browser - HTML5 player (in browser, HTML5)
Click here to listen with your own player (launches your MP3 player)
FA40 CTAF Audio Archives
FacilityFrequency
Hidden Lake CTAF123.000

NOTICE

Unauthorized use prohibited. See LiveATC.net Terms of Service


Find LiveATC Audio Streams


Airport/ARTCC Code

Frequency Search
(e.g., 124.400, 128.75)
Site-wide search
 


Browse LiveATC Feeds
Top 50 LiveATC Feeds
LiveATC Feed Map
Bad Weather Areas

LiveATC FAQ
Offer LiveATC feed
Contact LiveATC.net
Press Inquiries

LiveATC on iPhone
LiveATC on Android

Windows Phone
Windows 8/10

LiveATC Mobile
(Mobile browser)

ATC Audio Archives
Interesting Recordings

LiveATC Forums


Home Page
About LiveATC.net
Make a Donation
Terms of Use
Privacy Policy

Canadian Air Freqs

AIRMETs/SIGMETs

FAA Airport Status
Nat'l Airspace Status
Arrival Demand Charts


Server Software By:
Icecast.org
Liquidsoap